createdAt,value
2023-01-01T00:02:23.331Z,14.36
2023-01-01T00:04:49.953Z,14.38
2023-01-01T00:07:16.417Z,14.40
2023-01-01T00:10:01.748Z,14.41
2023-01-01T00:12:28.353Z,14.41
2023-01-01T00:14:54.861Z,14.40
2023-01-01T00:17:21.345Z,14.39
2023-01-01T00:19:47.942Z,14.38
2023-01-01T00:22:52.887Z,14.40
2023-01-01T00:25:00.918Z,14.43
2023-01-01T00:27:27.532Z,14.44
2023-01-01T00:29:54.023Z,14.45
2023-01-01T00:32:22.876Z,14.47
2023-01-01T00:34:49.957Z,14.49
2023-01-01T00:37:18.320Z,14.50
2023-01-01T00:39:45.214Z,14.51
2023-01-01T00:42:11.807Z,14.53
2023-01-01T00:44:38.333Z,14.55
2023-01-01T00:47:04.955Z,14.57
2023-01-01T00:49:31.499Z,14.57
2023-01-01T00:51:57.956Z,14.57
2023-01-01T00:54:24.393Z,14.59
2023-01-01T00:56:50.875Z,14.60
2023-01-01T00:59:17.348Z,14.61
2023-01-01T01:01:43.949Z,14.63
2023-01-01T01:04:11.048Z,14.64
2023-01-01T01:06:37.553Z,14.66
2023-01-01T01:09:04.736Z,14.66
2023-01-01T01:11:31.273Z,14.67
2023-01-01T01:13:57.925Z,14.69
2023-01-01T01:16:27.460Z,14.71
2023-01-01T01:18:55.831Z,14.72
2023-01-01T01:21:23.910Z,14.74
2023-01-01T01:23:51.325Z,14.75
2023-01-01T01:26:20.804Z,14.75
2023-01-01T01:28:49.783Z,14.74
2023-01-01T01:31:18.526Z,14.76
2023-01-01T01:33:45.972Z,14.75
2023-01-01T01:36:13.442Z,14.75
2023-01-01T01:38:40.695Z,14.74
2023-01-01T01:41:08.264Z,14.75
2023-01-01T01:43:34.676Z,14.75
2023-01-01T01:46:04.636Z,14.75
2023-01-01T01:48:39.218Z,14.74
2023-01-01T01:51:06.392Z,14.75
2023-01-01T01:53:38.425Z,14.70
2023-01-01T01:56:10.293Z,14.63
2023-01-01T01:58:37.290Z,14.60
2023-01-01T02:01:04.516Z,14.60
2023-01-01T02:03:37.279Z,14.64
2023-01-01T02:06:04.402Z,14.67
2023-01-01T02:08:31.239Z,14.68
2023-01-01T02:10:57.777Z,14.69
2023-01-01T02:13:24.381Z,14.66
2023-01-01T02:16:15.689Z,14.65
2023-01-01T02:18:48.810Z,14.65
2023-01-01T02:21:31.329Z,14.60
2023-01-01T02:24:36.178Z,14.57
2023-01-01T02:27:21.975Z,14.54
2023-01-01T02:30:05.351Z,14.52
2023-01-01T02:32:56.988Z,14.51
2023-01-01T02:35:36.902Z,14.49
2023-01-01T02:38:22.071Z,14.44
2023-01-01T02:41:03.819Z,14.40
2023-01-01T02:43:30.429Z,14.35
2023-01-01T02:45:57.203Z,14.31
2023-01-01T02:48:44.798Z,14.31
2023-01-01T02:51:14.269Z,14.29
2023-01-01T02:53:47.185Z,14.28
2023-01-01T02:56:38.917Z,14.26
2023-01-01T02:59:59.692Z,14.23
2023-01-01T03:02:51.071Z,14.17
2023-01-01T03:05:35.196Z,14.11
2023-01-01T03:08:15.841Z,14.07
2023-01-01T03:10:57.489Z,14.06
2023-01-01T03:13:40.280Z,14.02
2023-01-01T03:16:09.573Z,14.00
2023-01-01T03:19:11.192Z,13.97
2023-01-01T03:21:40.610Z,13.94
2023-01-01T03:24:10.826Z,13.92
2023-01-01T03:26:40.579Z,13.89
2023-01-01T03:29:12.580Z,13.89
2023-01-01T03:31:43.614Z,13.92
2023-01-01T03:34:16.865Z,13.97
2023-01-01T03:36:48.652Z,14.03
2023-01-01T03:39:38.527Z,14.09
2023-01-01T03:42:26.521Z,14.08
2023-01-01T03:44:58.318Z,14.07
2023-01-01T03:47:24.910Z,14.06
2023-01-01T03:49:51.477Z,14.04
2023-01-01T03:52:30.582Z,14.03
2023-01-01T03:55:08.435Z,14.01
2023-01-01T03:57:44.494Z,14.01
2023-01-01T04:00:16.494Z,13.95
2023-01-01T04:02:52.803Z,13.91
2023-01-01T04:05:20.786Z,13.89
2023-01-01T04:10:17.642Z,13.86
2023-01-01T04:12:46.738Z,13.83
2023-01-01T04:15:13.288Z,13.77
2023-01-01T04:17:40.650Z,13.73
2023-01-01T04:20:08.203Z,13.71
2023-01-01T04:22:35.362Z,13.68
2023-01-01T04:25:02.352Z,13.63
2023-01-01T04:27:28.940Z,13.58
2023-01-01T04:29:55.491Z,13.55
2023-01-01T04:32:23.028Z,13.50
2023-01-01T04:34:49.540Z,13.49
2023-01-01T04:37:16.534Z,13.47
2023-01-01T04:39:43.176Z,13.44
2023-01-01T04:42:09.883Z,13.44
2023-01-01T04:44:36.375Z,13.46
2023-01-01T04:47:03.124Z,13.46
2023-01-01T04:49:29.652Z,13.47
2023-01-01T04:51:56.307Z,13.43
2023-01-01T04:54:23.125Z,13.41
2023-01-01T04:56:49.717Z,13.40
2023-01-01T04:59:16.271Z,13.39
2023-01-01T05:01:42.879Z,13.37
2023-01-01T05:04:13.141Z,13.33
2023-01-01T05:06:39.728Z,13.30
2023-01-01T05:09:06.304Z,13.26
2023-01-01T05:11:32.786Z,13.23
2023-01-01T05:14:00.538Z,13.19
2023-01-01T05:16:29.717Z,13.16
2023-01-01T05:18:56.613Z,13.15
2023-01-01T05:21:32.141Z,13.17
2023-01-01T05:24:04.464Z,13.19
2023-01-01T05:26:33.737Z,13.22
2023-01-01T05:29:01.326Z,13.27
2023-01-01T05:31:30.555Z,13.32
2023-01-01T05:36:29.148Z,13.38
2023-01-01T05:38:56.063Z,13.39
2023-01-01T05:41:23.071Z,13.42
2023-01-01T05:43:50.962Z,13.43
2023-01-01T05:46:20.192Z,13.46
2023-01-01T05:48:47.229Z,13.49
2023-01-01T05:51:16.777Z,13.52
2023-01-01T05:53:44.592Z,13.54
2023-01-01T05:56:12.619Z,13.56
2023-01-01T05:58:39.930Z,13.57
2023-01-01T06:01:13.389Z,13.60
2023-01-01T06:03:41.307Z,13.60
2023-01-01T06:06:10.569Z,13.62
2023-01-01T06:08:37.137Z,13.65
2023-01-01T06:11:06.423Z,13.67
2023-01-01T06:13:33.795Z,13.68
2023-01-01T06:16:01.641Z,13.69
2023-01-01T06:18:34.112Z,13.69
2023-01-01T06:21:12.797Z,13.70
2023-01-01T06:23:39.672Z,13.70
2023-01-01T06:26:12.032Z,13.68
2023-01-01T06:28:39.637Z,13.69
2023-01-01T06:31:08.649Z,13.66
2023-01-01T06:33:36.309Z,13.63
2023-01-01T06:36:05.457Z,13.62
2023-01-01T06:38:32.928Z,13.60
2023-01-01T06:41:02.041Z,13.61
2023-01-01T06:43:30.846Z,13.60
2023-01-01T06:46:07.593Z,13.57
2023-01-01T06:48:36.711Z,13.50
2023-01-01T06:51:17.756Z,13.43
2023-01-01T06:53:44.319Z,13.35
2023-01-01T06:56:10.927Z,13.32
2023-01-01T06:58:37.564Z,13.29
2023-01-01T07:01:08.644Z,13.23
2023-01-01T07:03:36.320Z,13.20
2023-01-01T07:06:03.395Z,13.21
2023-01-01T07:08:29.971Z,13.18
2023-01-01T07:10:57.551Z,13.15
2023-01-01T07:13:25.147Z,13.13
2023-01-01T07:15:52.632Z,13.11
2023-01-01T07:18:23.287Z,13.11
2023-01-01T07:20:52.399Z,13.14
2023-01-01T07:23:19.226Z,13.17
2023-01-01T07:25:45.857Z,13.21
2023-01-01T07:28:13.141Z,13.24
2023-01-01T07:30:39.612Z,13.26
2023-01-01T07:33:06.039Z,13.25
2023-01-01T07:35:32.473Z,13.22
2023-01-01T07:37:58.979Z,13.25
2023-01-01T07:40:25.595Z,13.27
2023-01-01T07:42:52.074Z,13.30
2023-01-01T07:45:18.621Z,13.35
2023-01-01T07:47:50.711Z,13.35
2023-01-01T07:50:17.935Z,13.37
2023-01-01T07:52:44.808Z,13.40
2023-01-01T07:55:15.645Z,13.45
2023-01-01T07:57:43.475Z,13.47
2023-01-01T08:00:12.368Z,13.50
2023-01-01T08:02:43.679Z,13.54
2023-01-01T08:05:10.898Z,13.57
2023-01-01T08:07:38.143Z,13.60
2023-01-01T08:10:06.056Z,13.63
2023-01-01T08:12:33.157Z,13.67
2023-01-01T08:14:59.655Z,13.69
2023-01-01T08:17:26.162Z,13.71
2023-01-01T08:19:52.895Z,13.71
2023-01-01T08:22:19.531Z,13.73
2023-01-01T08:24:46.171Z,13.76
2023-01-01T08:27:14.617Z,13.77
2023-01-01T08:29:41.291Z,13.79
2023-01-01T08:32:10.016Z,13.84
2023-01-01T08:34:36.536Z,13.87
2023-01-01T08:37:03.340Z,13.87
2023-01-01T08:39:30.262Z,13.89
2023-01-01T08:41:56.888Z,13.91
2023-01-01T08:44:23.557Z,13.92
2023-01-01T08:46:53.002Z,13.95
2023-01-01T08:49:19.737Z,13.97
2023-01-01T08:51:46.216Z,13.96
2023-01-01T08:54:12.771Z,13.95
2023-01-01T08:56:39.277Z,13.92
2023-01-01T08:59:06.130Z,13.88
2023-01-01T09:01:33.105Z,13.85
2023-01-01T09:03:59.825Z,13.82
2023-01-01T09:06:26.292Z,13.81
2023-01-01T09:08:52.828Z,13.82
2023-01-01T09:11:27.918Z,13.81
2023-01-01T09:13:54.680Z,13.82
2023-01-01T09:16:22.026Z,13.84
2023-01-01T09:18:49.210Z,13.85
2023-01-01T09:21:16.078Z,13.90
2023-01-01T09:23:42.820Z,13.93
2023-01-01T09:26:10.205Z,13.96
2023-01-01T09:28:37.886Z,13.97
2023-01-01T09:31:06.454Z,13.99
2023-01-01T09:33:33.988Z,13.99
2023-01-01T09:36:27.168Z,14.01
2023-01-01T09:38:58.012Z,14.03
2023-01-01T09:41:40.208Z,14.03
2023-01-01T09:44:19.524Z,14.04
2023-01-01T09:46:46.169Z,14.06
2023-01-01T09:49:18.921Z,14.08
2023-01-01T09:51:58.263Z,14.07
2023-01-01T09:54:47.255Z,14.08
2023-01-01T09:57:19.842Z,14.09
2023-01-01T09:59:47.085Z,14.09
2023-01-01T10:02:32.230Z,14.10
2023-01-01T10:05:30.391Z,14.13
2023-01-01T10:08:27.867Z,14.15
2023-01-01T10:11:01.974Z,14.17
2023-01-01T10:13:41.114Z,14.17
2023-01-01T10:16:24.713Z,14.18
2023-01-01T10:18:55.692Z,14.20
2023-01-01T10:21:30.579Z,14.21
2023-01-01T10:24:04.922Z,14.21
2023-01-01T10:26:33.942Z,14.22
2023-01-01T10:29:09.357Z,14.22
2023-01-01T10:31:42.271Z,14.20
2023-01-01T10:34:20.001Z,14.21
2023-01-01T10:36:47.000Z,14.19
2023-01-01T10:39:17.872Z,14.20
2023-01-01T10:41:45.051Z,14.20
2023-01-01T10:44:13.300Z,14.21
2023-01-01T10:46:48.757Z,14.21
2023-01-01T10:49:16.543Z,14.24
2023-01-01T10:51:46.068Z,14.24
2023-01-01T10:54:34.025Z,14.24
2023-01-01T10:57:14.666Z,14.26
2023-01-01T10:59:46.733Z,14.21
2023-01-01T11:02:24.421Z,14.17
2023-01-01T11:04:54.619Z,14.14
2023-01-01T11:07:37.767Z,14.10
2023-01-01T11:10:07.292Z,14.06
2023-01-01T11:13:04.139Z,14.02
2023-01-01T11:15:41.323Z,13.97
2023-01-01T11:18:14.978Z,13.92
2023-01-01T11:20:43.371Z,13.89
2023-01-01T11:23:30.625Z,13.90
2023-01-01T11:26:01.675Z,13.92
2023-01-01T11:28:31.536Z,13.84
2023-01-01T11:31:20.239Z,13.79
2023-01-01T11:33:54.553Z,13.78
2023-01-01T11:36:24.460Z,13.76
2023-01-01T11:39:05.919Z,13.73
2023-01-01T11:41:51.181Z,13.73
2023-01-01T11:44:42.281Z,13.68
2023-01-01T11:47:40.070Z,13.60
2023-01-01T11:50:25.689Z,13.52
2023-01-01T11:52:55.591Z,13.48
2023-01-01T11:55:22.182Z,13.47
2023-01-01T11:57:59.821Z,13.46
2023-01-01T12:00:30.663Z,13.42
2023-01-01T12:03:04.165Z,13.33
2023-01-01T12:05:46.894Z,13.29
2023-01-01T12:08:21.492Z,13.28
2023-01-01T12:10:55.609Z,13.30
2023-01-01T12:13:27.292Z,13.30
2023-01-01T12:16:18.552Z,13.26
2023-01-01T12:18:58.383Z,13.25
2023-01-01T12:21:29.274Z,13.26
2023-01-01T12:23:56.205Z,13.28
2023-01-01T12:26:39.945Z,13.29
2023-01-01T12:29:38.031Z,13.28
2023-01-01T12:32:39.925Z,13.26
2023-01-01T12:35:21.783Z,13.26
2023-01-01T12:37:54.320Z,13.25
2023-01-01T12:40:27.253Z,13.24
2023-01-01T12:43:00.942Z,13.26
2023-01-01T12:45:46.903Z,13.28
2023-01-01T12:48:52.271Z,13.28
2023-01-01T12:51:50.387Z,13.28
2023-01-01T12:54:54.574Z,13.27
2023-01-01T12:57:43.800Z,13.27
2023-01-01T13:00:17.924Z,13.25
2023-01-01T13:02:48.370Z,13.22
2023-01-01T13:05:31.520Z,13.18
2023-01-01T13:08:03.028Z,13.13
2023-01-01T13:10:38.789Z,13.11
2023-01-01T13:13:06.257Z,13.07
2023-01-01T13:15:35.729Z,13.05
2023-01-01T13:18:06.395Z,13.07
2023-01-01T13:20:39.003Z,13.08
2023-01-01T13:23:05.732Z,13.11
2023-01-01T13:25:32.426Z,13.15
2023-01-01T13:28:03.458Z,13.14
2023-01-01T13:30:36.065Z,13.11
2023-01-01T13:33:27.205Z,13.05
2023-01-01T13:36:09.252Z,12.97
2023-01-01T13:38:46.314Z,12.90
2023-01-01T13:41:44.360Z,12.85
2023-01-01T13:44:16.543Z,12.82
2023-01-01T13:46:52.423Z,12.81
2023-01-01T13:49:37.684Z,12.77
2023-01-01T13:52:06.296Z,12.72
2023-01-01T13:54:41.615Z,12.67
2023-01-01T13:57:26.141Z,12.63
2023-01-01T14:00:13.949Z,12.59
2023-01-01T14:02:45.191Z,12.53
2023-01-01T14:05:30.247Z,12.49
2023-01-01T14:07:57.607Z,12.47
2023-01-01T14:10:25.880Z,12.44
2023-01-01T14:13:05.773Z,12.40
2023-01-01T14:15:53.375Z,12.38
2023-01-01T14:18:24.170Z,12.34
2023-01-01T14:20:53.355Z,12.31
2023-01-01T14:23:31.843Z,12.27
2023-01-01T14:26:00.980Z,12.24
2023-01-01T14:28:30.896Z,12.21
2023-01-01T14:31:05.604Z,12.18
2023-01-01T14:33:37.528Z,12.14
2023-01-01T14:36:16.737Z,12.09
2023-01-01T14:38:48.239Z,12.06
2023-01-01T14:41:20.787Z,12.00
2023-01-01T14:43:51.132Z,11.94
2023-01-01T14:46:26.853Z,11.90
2023-01-01T14:48:57.608Z,11.85
2023-01-01T14:51:30.032Z,11.82
2023-01-01T14:53:59.929Z,11.79
2023-01-01T14:56:47.029Z,11.75
2023-01-01T14:59:26.353Z,11.70
2023-01-01T15:02:03.100Z,11.65
2023-01-01T15:04:30.620Z,11.62
2023-01-01T15:07:04.022Z,11.58
2023-01-01T15:09:32.407Z,11.55
2023-01-01T15:11:59.830Z,11.53
2023-01-01T15:14:32.063Z,11.52
2023-01-01T15:17:23.089Z,11.50
2023-01-01T15:20:23.496Z,11.47
2023-01-01T15:22:51.814Z,11.44
2023-01-01T15:25:19.804Z,11.42
2023-01-01T15:27:52.111Z,11.38
2023-01-01T15:30:31.373Z,11.35
2023-01-01T15:33:10.519Z,11.33
2023-01-01T15:35:38.253Z,11.31
2023-01-01T15:38:27.158Z,11.29
2023-01-01T15:40:54.062Z,11.29
2023-01-01T15:43:23.543Z,11.27
2023-01-01T15:45:54.616Z,11.28
2023-01-01T15:48:37.478Z,11.28
2023-01-01T15:51:27.412Z,11.28
2023-01-01T15:53:59.754Z,11.30
2023-01-01T15:56:30.011Z,11.34
2023-01-01T15:59:09.612Z,11.38
2023-01-01T16:01:40.683Z,11.41
2023-01-01T16:04:10.645Z,11.44
2023-01-01T16:06:50.197Z,11.44
2023-01-01T16:09:18.601Z,11.45
2023-01-01T16:11:46.159Z,11.48
2023-01-01T16:14:13.421Z,11.48
2023-01-01T16:16:43.343Z,11.49
2023-01-01T16:19:17.284Z,11.50
2023-01-01T16:21:44.119Z,11.50
2023-01-01T16:24:16.302Z,11.49
2023-01-01T16:26:43.141Z,11.52
2023-01-01T16:29:09.958Z,11.52
2023-01-01T16:31:37.820Z,11.50
2023-01-01T16:34:05.372Z,11.50
2023-01-01T16:36:31.956Z,11.48
2023-01-01T16:38:58.845Z,11.47
2023-01-01T16:41:28.912Z,11.48
2023-01-01T16:43:55.722Z,11.47
2023-01-01T16:46:25.346Z,11.47
2023-01-01T16:48:52.405Z,11.49
2023-01-01T16:51:29.752Z,11.50
2023-01-01T16:53:57.561Z,11.52
2023-01-01T16:56:24.396Z,11.55
2023-01-01T16:58:55.302Z,11.57
2023-01-01T17:01:27.006Z,11.57
2023-01-01T17:03:53.725Z,11.58
2023-01-01T17:06:20.600Z,11.60
2023-01-01T17:08:47.629Z,11.61
2023-01-01T17:11:17.053Z,11.62
2023-01-01T17:13:46.680Z,11.65
2023-01-01T17:16:23.049Z,11.67
2023-01-01T17:19:14.372Z,11.68
2023-01-01T17:21:39.672Z,11.70
2023-01-01T17:24:06.558Z,11.71
2023-01-01T17:26:33.775Z,11.73
2023-01-01T17:29:02.933Z,11.78
2023-01-01T17:31:32.148Z,11.82
2023-01-01T17:33:58.878Z,11.86
2023-01-01T17:36:28.859Z,11.89
2023-01-01T17:38:56.306Z,11.93
2023-01-01T17:41:23.425Z,11.97
2023-01-01T17:43:51.768Z,12.02
2023-01-01T17:46:23.802Z,12.06
2023-01-01T17:48:50.647Z,12.10
2023-01-01T17:51:18.441Z,12.14
2023-01-01T17:53:45.721Z,12.18
2023-01-01T17:56:14.138Z,12.21
2023-01-01T17:58:42.377Z,12.24
2023-01-01T18:01:33.072Z,12.28
2023-01-01T18:04:03.072Z,12.31
2023-01-01T18:06:31.670Z,12.34
2023-01-01T18:09:03.479Z,12.37
2023-01-01T18:11:31.976Z,12.40
2023-01-01T18:14:00.527Z,12.42
2023-01-01T18:16:29.201Z,12.45
2023-01-01T18:19:04.053Z,12.47
2023-01-01T18:21:32.241Z,12.49
2023-01-01T18:23:59.642Z,12.51
2023-01-01T18:26:29.941Z,12.54
2023-01-01T18:28:59.514Z,12.57
2023-01-01T18:31:27.868Z,12.58
2023-01-01T18:33:54.764Z,12.60
2023-01-01T18:36:24.354Z,12.62
2023-01-01T18:39:27.762Z,12.64
2023-01-01T18:42:35.000Z,12.66
2023-01-01T18:45:13.580Z,12.66
2023-01-01T18:47:40.518Z,12.66
2023-01-01T18:50:25.077Z,12.63
2023-01-01T18:53:03.087Z,12.59
2023-01-01T18:55:30.915Z,12.55
2023-01-01T18:58:20.956Z,12.52
2023-01-01T19:00:49.042Z,12.47
2023-01-01T19:03:28.451Z,12.44
2023-01-01T19:05:56.475Z,12.44
2023-01-01T19:08:25.940Z,12.42
2023-01-01T19:10:59.073Z,12.43
2023-01-01T19:13:34.352Z,12.43
2023-01-01T19:16:03.481Z,12.45
2023-01-01T19:18:33.181Z,12.47
2023-01-01T19:21:19.779Z,12.48
2023-01-01T19:23:52.769Z,12.50
2023-01-01T19:26:29.150Z,12.55
2023-01-01T19:28:57.582Z,12.57
2023-01-01T19:31:24.162Z,12.61
2023-01-01T19:33:51.122Z,12.64
2023-01-01T19:36:22.392Z,12.66
2023-01-01T19:38:48.916Z,12.69
2023-01-01T19:41:15.594Z,12.71
2023-01-01T19:43:42.116Z,12.73
2023-01-01T19:46:08.597Z,12.76
2023-01-01T19:48:35.195Z,12.80
2023-01-01T19:51:01.801Z,12.81
2023-01-01T19:53:28.421Z,12.83
2023-01-01T19:55:54.909Z,12.86
2023-01-01T19:58:22.969Z,12.88
2023-01-01T20:00:50.184Z,12.90
2023-01-01T20:06:04.942Z,12.95
2023-01-01T20:08:32.364Z,12.96
2023-01-01T20:11:00.681Z,12.98
2023-01-01T20:13:27.350Z,12.99
2023-01-01T20:15:54.043Z,13.00
2023-01-01T20:18:20.753Z,13.02
2023-01-01T20:21:06.381Z,13.02
2023-01-01T20:23:32.970Z,13.05
2023-01-01T20:25:59.843Z,13.06
2023-01-01T20:28:44.838Z,13.08
2023-01-01T20:31:11.529Z,13.10
2023-01-01T20:33:38.974Z,13.11
2023-01-01T20:36:24.513Z,13.12
2023-01-01T20:38:56.547Z,13.12
2023-01-01T20:41:26.060Z,13.12
2023-01-01T20:43:58.885Z,13.11
2023-01-01T20:46:26.087Z,13.11
2023-01-01T20:48:53.403Z,13.11
2023-01-01T20:51:20.025Z,13.11
2023-01-01T20:53:46.652Z,13.12
2023-01-01T20:56:13.573Z,13.11
2023-01-01T20:58:45.971Z,13.11
2023-01-01T21:01:15.492Z,13.08
2023-01-01T21:03:42.294Z,13.09
2023-01-01T21:06:09.231Z,13.09
2023-01-01T21:08:35.701Z,13.08
2023-01-01T21:11:04.910Z,13.09
2023-01-01T21:13:32.081Z,13.08
2023-01-01T21:16:15.184Z,13.07
2023-01-01T21:18:41.987Z,13.06
2023-01-01T21:21:15.605Z,13.07
2023-01-01T21:23:42.205Z,13.05
2023-01-01T21:26:25.262Z,13.06
2023-01-01T21:28:51.996Z,13.06
2023-01-01T21:31:18.761Z,13.06
2023-01-01T21:33:46.214Z,13.06
2023-01-01T21:36:17.818Z,13.05
2023-01-01T21:38:45.664Z,13.05
2023-01-01T21:41:23.966Z,13.04
2023-01-01T21:43:56.314Z,13.04
2023-01-01T21:46:32.555Z,13.04
2023-01-01T21:49:12.150Z,13.02
2023-01-01T21:51:54.320Z,13.02
2023-01-01T21:54:36.312Z,13.00
2023-01-01T21:57:14.838Z,12.98
2023-01-01T21:59:47.027Z,12.96
2023-01-01T22:02:13.987Z,12.94
2023-01-01T22:04:48.394Z,12.94
2023-01-01T22:07:56.658Z,12.93
2023-01-01T22:10:19.656Z,12.93
2023-01-01T22:12:46.901Z,12.93
2023-01-01T22:15:25.669Z,12.93
2023-01-01T22:18:12.416Z,12.94
2023-01-01T22:20:41.799Z,12.92
2023-01-01T22:23:32.347Z,12.91
2023-01-01T22:25:59.488Z,12.90
2023-01-01T22:28:32.128Z,12.88
2023-01-01T22:31:02.259Z,12.87
2023-01-01T22:33:48.439Z,12.89
2023-01-01T22:36:22.955Z,12.89
2023-01-01T22:38:54.331Z,12.89
2023-01-01T22:41:21.269Z,12.88
2023-01-01T22:43:48.710Z,12.88
2023-01-01T22:46:33.625Z,12.87
2023-01-01T22:49:17.380Z,12.88
2023-01-01T22:51:45.480Z,12.89
2023-01-01T22:54:12.264Z,12.89
2023-01-01T22:56:39.942Z,12.90
2023-01-01T22:59:06.579Z,12.89
2023-01-01T23:01:33.485Z,12.89
2023-01-01T23:04:00.208Z,12.89
2023-01-01T23:06:26.974Z,12.88
2023-01-01T23:08:53.912Z,12.87
2023-01-01T23:11:20.801Z,12.86
2023-01-01T23:14:08.195Z,12.85
2023-01-01T23:16:35.021Z,12.84
2023-01-01T23:19:01.844Z,12.82
2023-01-01T23:21:31.098Z,12.82
2023-01-01T23:24:00.595Z,12.79
2023-01-01T23:26:27.312Z,12.79
2023-01-01T23:28:55.271Z,12.79
2023-01-01T23:31:25.862Z,12.78
2023-01-01T23:33:54.705Z,12.76
2023-01-01T23:36:22.321Z,12.75
2023-01-01T23:38:49.028Z,12.74
2023-01-01T23:41:15.507Z,12.74
2023-01-01T23:43:43.911Z,12.72
2023-01-01T23:46:14.707Z,12.72
2023-01-01T23:48:46.431Z,12.71
2023-01-01T23:51:13.318Z,12.70
2023-01-01T23:53:39.829Z,12.71
2023-01-01T23:56:06.551Z,12.71
2023-01-01T23:58:33.187Z,12.73
